createdAt,value
2024-02-07T00:00:11.725Z,99261.00
2024-02-07T00:03:02.542Z,99265.59
2024-02-07T00:05:31.508Z,99264.03
2024-02-07T00:08:00.670Z,99266.66
2024-02-07T00:10:29.441Z,99260.66
2024-02-07T00:12:58.417Z,99265.91
2024-02-07T00:15:28.583Z,99266.72
2024-02-07T00:17:59.261Z,99262.38
2024-02-07T00:20:29.269Z,99257.97
2024-02-07T00:22:58.249Z,99260.78
2024-02-07T00:25:26.914Z,99255.56
2024-02-07T00:27:56.358Z,99261.69
2024-02-07T00:30:31.246Z,99258.41
2024-02-07T00:33:07.384Z,99257.47
2024-02-07T00:35:37.597Z,99260.25
2024-02-07T00:38:06.872Z,99257.56
2024-02-07T00:40:35.826Z,99254.94
2024-02-07T00:43:05.314Z,99262.81
2024-02-07T00:45:34.113Z,99261.88
2024-02-07T00:48:03.052Z,99254.81
2024-02-07T00:50:31.726Z,99253.19
2024-02-07T00:53:02.273Z,99244.41
2024-02-07T00:55:31.226Z,99254.06
2024-02-07T00:58:00.194Z,99250.63
2024-02-07T01:00:28.905Z,99254.22
2024-02-07T01:02:57.916Z,99240.28
2024-02-07T01:05:26.652Z,99242.13
2024-02-07T01:07:55.724Z,99240.47
2024-02-07T01:10:25.837Z,99251.91
2024-02-07T01:12:54.761Z,99250.19
2024-02-07T01:15:23.473Z,99250.28
2024-02-07T01:17:52.489Z,99258.25
2024-02-07T01:20:21.323Z,99252.19
2024-02-07T01:22:50.352Z,99246.97
2024-02-07T01:25:20.189Z,99241.06
2024-02-07T01:27:51.130Z,99240.28
2024-02-07T01:30:19.952Z,99229.78
2024-02-07T01:32:49.666Z,99228.09
2024-02-07T01:35:18.487Z,99231.72
2024-02-07T01:37:47.656Z,99232.59
2024-02-07T01:40:16.901Z,99231.91
2024-02-07T01:42:45.869Z,99226.72
2024-02-07T01:45:23.957Z,99221.09
2024-02-07T01:47:53.759Z,99224.84
2024-02-07T01:50:23.644Z,99216.81
2024-02-07T01:52:56.863Z,99211.19
2024-02-07T01:55:26.560Z,99219.91
2024-02-07T01:57:57.085Z,99215.63
2024-02-07T02:00:28.119Z,99212.88
2024-02-07T02:02:57.100Z,99213.59
2024-02-07T02:05:25.976Z,99210.16
2024-02-07T02:07:55.552Z,99214.56
2024-02-07T02:10:24.459Z,99215.25
2024-02-07T02:12:54.117Z,99218.75
2024-02-07T02:15:24.234Z,99216.00
2024-02-07T02:17:54.935Z,99214.34
2024-02-07T02:20:24.898Z,99206.44
2024-02-07T02:23:19.559Z,99202.81
2024-02-07T02:26:21.413Z,99215.38
2024-02-07T02:29:06.142Z,99207.66
2024-02-07T02:31:38.409Z,99207.06
2024-02-07T02:34:08.137Z,99207.38
2024-02-07T02:36:37.212Z,99205.53
2024-02-07T02:39:07.058Z,99202.81
2024-02-07T02:41:35.791Z,99202.94
2024-02-07T02:44:04.979Z,99207.47
2024-02-07T02:46:33.734Z,99195.09
2024-02-07T02:49:04.499Z,99195.94
2024-02-07T02:51:33.977Z,99196.94
2024-02-07T02:54:04.136Z,99195.09
2024-02-07T02:56:34.518Z,99193.47
2024-02-07T02:59:06.949Z,99196.75
2024-02-07T03:01:36.754Z,99188.84
2024-02-07T03:04:08.052Z,99178.22
2024-02-07T03:06:52.295Z,99180.38
2024-02-07T03:09:22.610Z,99181.22
2024-02-07T03:11:52.070Z,99183.78
2024-02-07T03:14:21.907Z,99186.47
2024-02-07T03:16:50.572Z,99182.69
2024-02-07T03:19:21.543Z,99185.28
2024-02-07T03:21:50.244Z,99180.06
2024-02-07T03:24:20.172Z,99180.84
2024-02-07T03:26:48.893Z,99173.94
2024-02-07T03:29:18.540Z,99176.25
2024-02-07T03:31:47.282Z,99173.25
2024-02-07T03:34:16.564Z,99182.69
2024-02-07T03:36:47.055Z,99180.31
2024-02-07T03:39:15.988Z,99170.47
2024-02-07T03:41:44.609Z,99168.59
2024-02-07T03:44:14.460Z,99169.53
2024-02-07T03:46:43.473Z,99168.59
2024-02-07T03:49:12.599Z,99161.59
2024-02-07T03:51:42.144Z,99152.91
2024-02-07T03:54:12.660Z,99152.03
2024-02-07T03:56:41.380Z,99155.38
2024-02-07T03:59:10.448Z,99161.50
2024-02-07T04:01:39.854Z,99148.16
2024-02-07T04:04:09.863Z,99149.00
2024-02-07T04:06:39.854Z,99155.00
2024-02-07T04:09:10.191Z,99153.94
2024-02-07T04:11:39.263Z,99158.19
2024-02-07T04:14:07.064Z,99153.75
2024-02-07T04:16:53.345Z,99158.09
2024-02-07T04:19:39.661Z,99149.50
2024-02-07T04:22:26.139Z,99148.53
2024-02-07T04:25:12.812Z,99141.69
2024-02-07T04:28:00.141Z,99143.13
2024-02-07T04:30:46.352Z,99137.81
2024-02-07T04:33:32.667Z,99144.84
2024-02-07T04:36:18.948Z,99150.13
2024-02-07T04:39:04.960Z,99152.78
2024-02-07T04:41:51.374Z,99150.03
2024-02-07T04:44:39.037Z,99144.97
2024-02-07T04:47:25.562Z,99145.84
2024-02-07T04:50:11.505Z,99141.25
2024-02-07T04:52:58.183Z,99148.19
2024-02-07T04:55:44.307Z,99138.41
2024-02-07T04:58:30.960Z,99139.22
2024-02-07T05:01:19.066Z,99136.41
2024-02-07T05:04:05.846Z,99120.69
2024-02-07T05:06:52.795Z,99122.50
2024-02-07T05:09:39.389Z,99119.97
2024-02-07T05:12:25.824Z,99123.34
2024-02-07T05:14:53.764Z,99123.16
2024-02-07T05:17:25.252Z,99116.13
2024-02-07T05:19:54.717Z,99114.47
2024-02-07T05:22:23.410Z,99113.50
2024-02-07T05:24:53.586Z,99114.41
2024-02-07T05:27:22.341Z,99121.47
2024-02-07T05:29:51.520Z,99120.09
2024-02-07T05:32:20.416Z,99126.47
2024-02-07T05:34:51.047Z,99129.56
2024-02-07T05:37:22.091Z,99122.59
2024-02-07T05:39:51.217Z,99120.03
2024-02-07T05:42:20.360Z,99125.31
2024-02-07T05:44:49.965Z,99124.19
2024-02-07T05:47:18.808Z,99116.66
2024-02-07T05:49:48.091Z,99123.66
2024-02-07T05:52:19.512Z,99133.00
2024-02-07T05:54:51.111Z,99136.75
2024-02-07T05:57:19.894Z,99144.41
2024-02-07T05:59:48.813Z,99147.69
2024-02-07T06:02:18.488Z,99145.75
2024-02-07T06:04:50.949Z,99142.06
2024-02-07T06:07:21.266Z,99144.63
2024-02-07T06:09:50.352Z,99143.72
2024-02-07T06:12:19.084Z,99141.28
2024-02-07T06:14:48.791Z,99141.53
2024-02-07T06:17:18.287Z,99144.78
2024-02-07T06:19:47.679Z,99141.50
2024-02-07T06:22:16.540Z,99143.97
2024-02-07T06:24:47.281Z,99145.88
2024-02-07T06:27:15.988Z,99149.88
2024-02-07T06:29:45.004Z,99150.50
2024-02-07T06:32:13.822Z,99150.19
2024-02-07T06:34:42.949Z,99154.34
2024-02-07T06:37:11.772Z,99141.81
2024-02-07T06:39:40.719Z,99142.41
2024-02-07T06:42:10.800Z,99139.66
2024-02-07T06:44:39.740Z,99141.22
2024-02-07T06:47:08.488Z,99139.22
2024-02-07T06:49:38.801Z,99132.81
2024-02-07T06:52:08.108Z,99141.56
2024-02-07T06:54:37.105Z,99135.28
2024-02-07T06:57:06.225Z,99138.28
2024-02-07T06:59:36.654Z,99144.19
2024-02-07T07:02:05.721Z,99144.03
2024-02-07T07:04:34.884Z,99139.00
2024-02-07T07:07:03.642Z,99136.16
2024-02-07T07:09:32.578Z,99134.91
2024-02-07T07:12:01.304Z,99133.09
2024-02-07T07:14:30.262Z,99135.13
2024-02-07T07:17:00.436Z,99137.44
2024-02-07T07:19:29.563Z,99132.56
2024-02-07T07:21:58.261Z,99132.28
2024-02-07T07:24:27.406Z,99130.69
2024-02-07T07:26:56.703Z,99130.06
2024-02-07T07:29:26.444Z,99137.75
2024-02-07T07:31:55.169Z,99132.28
2024-02-07T07:34:26.196Z,99125.25
2024-02-07T07:36:55.036Z,99123.13
2024-02-07T07:39:24.122Z,99127.22
2024-02-07T07:41:52.835Z,99126.50
2024-02-07T07:44:22.081Z,99120.47
2024-02-07T07:46:50.794Z,99120.94
2024-02-07T07:49:20.036Z,99120.72
2024-02-07T07:51:50.185Z,99126.22
2024-02-07T07:54:19.194Z,99119.25
2024-02-07T07:56:47.877Z,99115.97
2024-02-07T07:59:17.266Z,99107.41
2024-02-07T08:01:46.085Z,99116.09
2024-02-07T08:04:15.377Z,99113.19
2024-02-07T08:06:46.716Z,99121.28
2024-02-07T08:09:19.608Z,99107.03
2024-02-07T08:11:48.906Z,99109.41
2024-02-07T08:14:18.745Z,99105.38
2024-02-07T08:16:47.812Z,99102.94
2024-02-07T08:19:16.945Z,99102.31
2024-02-07T08:21:45.768Z,99093.84
2024-02-07T08:24:14.842Z,99096.50
2024-02-07T08:26:46.225Z,99098.75
2024-02-07T08:29:16.267Z,99097.94
2024-02-07T08:31:45.009Z,99097.91
2024-02-07T08:34:15.298Z,99093.19
2024-02-07T08:36:44.317Z,99092.66
2024-02-07T08:39:13.632Z,99095.03
2024-02-07T08:41:43.017Z,99083.25
2024-02-07T08:44:13.352Z,99087.41
2024-02-07T08:46:42.327Z,99084.84
2024-02-07T08:49:11.740Z,99082.38
2024-02-07T08:51:56.214Z,99077.84
2024-02-07T08:54:25.160Z,99077.19
2024-02-07T08:56:55.464Z,99084.19
2024-02-07T08:59:26.024Z,99076.50
2024-02-07T09:01:54.832Z,99073.34
2024-02-07T09:04:24.016Z,99075.13
2024-02-07T09:06:52.888Z,99072.19
2024-02-07T09:09:21.879Z,99074.63
2024-02-07T09:11:50.517Z,99076.34
2024-02-07T09:14:19.464Z,99074.44
2024-02-07T09:16:49.623Z,99078.28
2024-02-07T09:19:18.844Z,99082.38
2024-02-07T09:21:47.664Z,99080.56
2024-02-07T09:24:16.628Z,99072.03
2024-02-07T09:26:45.363Z,99062.25
2024-02-07T09:29:14.375Z,99066.13
2024-02-07T09:31:43.091Z,99062.69
2024-02-07T09:34:13.540Z,99065.09
2024-02-07T09:36:42.324Z,99062.59
2024-02-07T09:39:11.263Z,99059.34
2024-02-07T09:41:43.230Z,99053.38
2024-02-07T09:44:16.932Z,99054.03
2024-02-07T09:46:46.705Z,99054.44
2024-02-07T09:49:19.708Z,99055.00
2024-02-07T09:51:48.491Z,99048.44
2024-02-07T09:54:21.085Z,99051.75
2024-02-07T09:56:51.133Z,99048.16
2024-02-07T09:59:22.074Z,99051.34
2024-02-07T10:01:51.179Z,99048.09
2024-02-07T10:04:30.624Z,99049.28
2024-02-07T10:06:59.813Z,99046.81
2024-02-07T10:09:31.434Z,99036.91
2024-02-07T10:12:02.644Z,99038.00
2024-02-07T10:14:33.522Z,99036.19
2024-02-07T10:17:02.641Z,99032.44
2024-02-07T10:19:34.989Z,99028.22
2024-02-07T10:22:17.682Z,99029.03
2024-02-07T10:24:47.463Z,99022.78
2024-02-07T10:27:23.408Z,99014.41
2024-02-07T10:29:52.480Z,99018.00
2024-02-07T10:32:22.590Z,99013.13
2024-02-07T10:34:57.125Z,99018.59
2024-02-07T10:37:26.804Z,99002.50
2024-02-07T10:40:02.944Z,99001.41
2024-02-07T10:42:31.912Z,98995.72
2024-02-07T10:45:09.562Z,98990.38
2024-02-07T10:47:40.173Z,98984.34
2024-02-07T10:50:13.137Z,98978.22
2024-02-07T10:52:43.441Z,98972.38
2024-02-07T10:55:16.549Z,98972.56
2024-02-07T10:57:50.283Z,98962.69
2024-02-07T11:00:20.074Z,98966.22
2024-02-07T11:02:51.853Z,98958.59
2024-02-07T11:05:24.082Z,98958.03
2024-02-07T11:07:53.724Z,98965.84
2024-02-07T11:10:24.911Z,98956.72
2024-02-07T11:12:54.311Z,98950.38
2024-02-07T11:15:23.778Z,98951.22
2024-02-07T11:17:52.560Z,98949.44
2024-02-07T11:20:23.482Z,98946.94
2024-02-07T11:22:53.693Z,98938.47
2024-02-07T11:25:26.854Z,98936.50
2024-02-07T11:27:57.545Z,98937.50
2024-02-07T11:30:28.128Z,98937.66
2024-02-07T11:32:59.875Z,98937.88
2024-02-07T11:35:34.290Z,98931.38
2024-02-07T11:38:04.961Z,98932.91
2024-02-07T11:40:41.681Z,98926.50
2024-02-07T11:43:20.340Z,98918.94
2024-02-07T11:45:51.901Z,98919.06
2024-02-07T11:48:21.738Z,98918.88
2024-02-07T11:50:54.260Z,98920.19
2024-02-07T11:53:23.656Z,98913.56
2024-02-07T11:55:52.660Z,98903.94
2024-02-07T11:58:24.502Z,98901.19
2024-02-07T12:00:53.678Z,98894.31
2024-02-07T12:03:23.054Z,98887.69
2024-02-07T12:05:53.804Z,98886.72
2024-02-07T12:08:23.646Z,98886.06
2024-02-07T12:10:53.112Z,98879.50
2024-02-07T12:13:21.919Z,98871.72
2024-02-07T12:15:52.677Z,98871.09
2024-02-07T12:18:21.383Z,98864.56
2024-02-07T12:20:50.617Z,98856.22
2024-02-07T12:23:21.138Z,98852.56
2024-02-07T12:25:57.755Z,98845.38
2024-02-07T12:28:27.429Z,98833.47
2024-02-07T12:30:57.219Z,98833.31
2024-02-07T12:33:26.856Z,98830.75
2024-02-07T12:35:57.729Z,98827.19
2024-02-07T12:38:28.555Z,98824.84
2024-02-07T12:40:58.976Z,98825.88
2024-02-07T12:43:29.092Z,98818.50
2024-02-07T12:46:00.086Z,98820.50
2024-02-07T12:48:29.695Z,98816.25
2024-02-07T12:51:02.946Z,98814.59
2024-02-07T12:53:34.372Z,98813.34
2024-02-07T12:56:04.096Z,98807.03
2024-02-07T12:58:43.096Z,98806.25
2024-02-07T13:01:13.515Z,98794.88
2024-02-07T13:03:44.324Z,98809.75
2024-02-07T13:06:15.699Z,98799.41
2024-02-07T13:08:45.853Z,98792.47
2024-02-07T13:11:15.654Z,98801.59
2024-02-07T13:13:44.467Z,98789.75
2024-02-07T13:16:13.678Z,98795.28
2024-02-07T13:18:42.408Z,98791.00
2024-02-07T13:21:12.448Z,98786.84
2024-02-07T13:23:41.179Z,98786.41
2024-02-07T13:26:11.821Z,98780.13
2024-02-07T13:28:41.211Z,98787.91
2024-02-07T13:31:10.421Z,98780.97
2024-02-07T13:33:39.216Z,98776.75
2024-02-07T13:36:08.697Z,98770.53
2024-02-07T13:38:38.122Z,98773.41
2024-02-07T13:41:07.768Z,98773.66
2024-02-07T13:43:37.997Z,98774.94
2024-02-07T13:46:07.073Z,98766.72
2024-02-07T13:48:35.905Z,98763.38
2024-02-07T13:51:05.283Z,98763.41
2024-02-07T13:53:34.050Z,98759.53
2024-02-07T13:56:04.754Z,98756.81
2024-02-07T13:58:34.059Z,98762.28
2024-02-07T14:01:04.710Z,98763.56
2024-02-07T14:03:33.593Z,98756.81
2024-02-07T14:06:03.594Z,98758.16
2024-02-07T14:08:32.387Z,98756.44
2024-02-07T14:11:02.155Z,98751.16
2024-02-07T14:13:30.971Z,98743.53
2024-02-07T14:15:59.994Z,98750.19
2024-02-07T14:18:30.123Z,98747.56
2024-02-07T14:20:59.824Z,98751.00
2024-02-07T14:23:28.565Z,98751.31
2024-02-07T14:25:59.010Z,98736.84
2024-02-07T14:28:27.815Z,98742.88
2024-02-07T14:30:56.812Z,98749.72
2024-02-07T14:33:25.563Z,98753.47
2024-02-07T14:35:56.054Z,98741.94
2024-02-07T14:38:27.543Z,98742.59
2024-02-07T14:40:58.658Z,98742.66
2024-02-07T14:43:27.573Z,98736.56
2024-02-07T14:45:56.596Z,98728.94
2024-02-07T14:48:25.342Z,98727.72
2024-02-07T14:50:55.853Z,98722.09
2024-02-07T14:53:24.927Z,98714.34
2024-02-07T14:55:59.760Z,98712.53
2024-02-07T14:58:29.395Z,98717.13
2024-02-07T15:00:58.827Z,98703.44
2024-02-07T15:03:27.566Z,98704.03
2024-02-07T15:05:58.842Z,98699.22
2024-02-07T15:08:27.588Z,98698.94
2024-02-07T15:10:56.507Z,98695.38
2024-02-07T15:13:25.036Z,98698.78
2024-02-07T15:15:53.756Z,98696.84
2024-02-07T15:18:23.053Z,98697.69
2024-02-07T15:20:51.799Z,98699.28
2024-02-07T15:23:21.647Z,98693.13
2024-02-07T15:25:51.291Z,98692.50
2024-02-07T15:28:20.477Z,98689.09
2024-02-07T15:30:50.875Z,98687.41
2024-02-07T15:33:22.254Z,98685.00
2024-02-07T15:35:52.566Z,98681.59
2024-02-07T15:38:22.542Z,98678.25
2024-02-07T15:40:52.652Z,98679.22
2024-02-07T15:43:21.469Z,98681.13
2024-02-07T15:45:50.268Z,98677.66
2024-02-07T15:48:18.863Z,98684.78
2024-02-07T15:50:47.870Z,98687.44
2024-02-07T15:53:16.509Z,98685.13
2024-02-07T15:55:46.735Z,98687.88
2024-02-07T15:58:18.058Z,98689.00
2024-02-07T16:00:47.038Z,98682.94
2024-02-07T16:03:15.666Z,98686.44
2024-02-07T16:05:44.679Z,98686.59
2024-02-07T16:08:13.309Z,98690.28
2024-02-07T16:10:42.486Z,98692.19
2024-02-07T16:13:12.505Z,98691.34
2024-02-07T16:15:41.788Z,98692.34
2024-02-07T16:18:10.342Z,98692.63
2024-02-07T16:20:39.324Z,98692.38
2024-02-07T16:23:07.880Z,98697.84
2024-02-07T16:25:36.649Z,98695.19
2024-02-07T16:28:05.557Z,98703.13
2024-02-07T16:30:35.636Z,98709.31
2024-02-07T16:33:04.300Z,98704.59
2024-02-07T16:35:33.171Z,98706.28
2024-02-07T16:38:01.874Z,98709.75
2024-02-07T16:40:33.672Z,98704.44
2024-02-07T16:43:05.090Z,98717.91
2024-02-07T16:45:37.410Z,98725.69
2024-02-07T16:48:07.090Z,98718.59
2024-02-07T16:50:35.936Z,98714.41
2024-02-07T16:53:06.754Z,98722.03
2024-02-07T16:55:35.656Z,98728.78
2024-02-07T16:58:04.317Z,98739.41
2024-02-07T17:00:33.161Z,98731.66
2024-02-07T17:03:05.806Z,98727.94
2024-02-07T17:05:34.670Z,98732.50
2024-02-07T17:08:03.641Z,98732.25
2024-02-07T17:10:32.644Z,98730.00
2024-02-07T17:13:01.463Z,98736.75
2024-02-07T17:15:30.447Z,98744.41
2024-02-07T17:17:59.182Z,98751.66
2024-02-07T17:20:29.732Z,98750.50
2024-02-07T17:22:58.591Z,98753.81
2024-02-07T17:25:27.763Z,98747.19
2024-02-07T17:27:56.569Z,98751.88
2024-02-07T17:30:35.574Z,98744.34
2024-02-07T17:33:07.654Z,98747.94
2024-02-07T17:35:38.175Z,98748.13
2024-02-07T17:38:06.822Z,98733.75
2024-02-07T17:40:36.476Z,98745.06
2024-02-07T17:43:05.541Z,98744.75
2024-02-07T17:45:34.509Z,98748.47
2024-02-07T17:48:03.257Z,98742.66
2024-02-07T17:50:35.652Z,98751.03
2024-02-07T17:53:06.561Z,98746.81
2024-02-07T17:55:35.739Z,98752.09
2024-02-07T17:58:04.557Z,98749.88
2024-02-07T18:00:33.566Z,98745.78
2024-02-07T18:03:02.414Z,98748.72
2024-02-07T18:05:34.377Z,98755.28
2024-02-07T18:08:03.256Z,98749.88
2024-02-07T18:10:33.827Z,98744.41
2024-02-07T18:13:02.617Z,98745.50
2024-02-07T18:15:31.784Z,98743.56
2024-02-07T18:18:00.504Z,98748.38
2024-02-07T18:20:33.244Z,98738.66
2024-02-07T18:23:03.264Z,98742.16
2024-02-07T18:25:33.750Z,98735.66
2024-02-07T18:28:02.392Z,98741.19
2024-02-07T18:30:31.923Z,98728.59
2024-02-07T18:33:00.910Z,98742.22
2024-02-07T18:35:29.998Z,98733.19
2024-02-07T18:37:59.029Z,98745.34
2024-02-07T18:40:28.105Z,98742.38
2024-02-07T18:42:58.229Z,98740.44
2024-02-07T18:45:28.436Z,98743.69
2024-02-07T18:47:57.112Z,98744.00
2024-02-07T18:50:26.212Z,98738.84
2024-02-07T18:52:55.040Z,98733.56
2024-02-07T18:55:24.029Z,98735.50
2024-02-07T18:57:52.757Z,98731.94
2024-02-07T19:00:23.550Z,98733.72
2024-02-07T19:02:52.230Z,98735.94
2024-02-07T19:05:21.582Z,98735.69
2024-02-07T19:07:50.487Z,98741.75
2024-02-07T19:10:19.884Z,98739.28
2024-02-07T19:12:48.619Z,98738.94
2024-02-07T19:15:17.790Z,98728.66
2024-02-07T19:17:47.974Z,98728.31
2024-02-07T19:20:17.237Z,98731.38
2024-02-07T19:22:46.177Z,98728.00
2024-02-07T19:25:15.312Z,98729.75
2024-02-07T19:27:43.993Z,98728.75
2024-02-07T19:30:13.982Z,98733.38
2024-02-07T19:32:43.215Z,98730.13
2024-02-07T19:35:14.156Z,98724.47
2024-02-07T19:37:42.991Z,98721.28
2024-02-07T19:40:13.060Z,98723.50
2024-02-07T19:42:41.836Z,98722.19
2024-02-07T19:45:11.818Z,98723.38
2024-02-07T19:47:41.339Z,98727.19
2024-02-07T19:50:15.044Z,98727.19
2024-02-07T19:52:46.082Z,98721.50
2024-02-07T19:55:15.406Z,98722.47
2024-02-07T19:57:44.057Z,98714.84
2024-02-07T20:00:13.787Z,98715.47
2024-02-07T20:02:43.194Z,98714.81
2024-02-07T20:05:14.205Z,98707.84
2024-02-07T20:07:43.208Z,98722.25
2024-02-07T20:10:13.692Z,98712.47
2024-02-07T20:12:42.450Z,98719.97
2024-02-07T20:15:11.854Z,98723.16
2024-02-07T20:17:40.719Z,98719.81
2024-02-07T20:20:10.532Z,98718.44
2024-02-07T20:22:39.301Z,98727.16
2024-02-07T20:25:11.053Z,98721.59
2024-02-07T20:27:41.254Z,98716.78
2024-02-07T20:30:10.533Z,98720.09
2024-02-07T20:32:39.283Z,98713.47
2024-02-07T20:35:08.922Z,98713.03
2024-02-07T20:37:37.673Z,98712.13
2024-02-07T20:40:07.524Z,98718.50
2024-02-07T20:42:38.065Z,98713.47
2024-02-07T20:45:08.950Z,98715.84
2024-02-07T20:47:39.310Z,98715.22
2024-02-07T20:50:09.445Z,98713.75
2024-02-07T20:52:38.205Z,98703.47
2024-02-07T20:55:08.174Z,98710.03
2024-02-07T20:57:37.177Z,98703.66
2024-02-07T21:00:06.962Z,98701.69
2024-02-07T21:02:37.536Z,98698.81
2024-02-07T21:05:07.819Z,98700.59
2024-02-07T21:07:37.049Z,98695.19
2024-02-07T21:10:07.120Z,98698.75
2024-02-07T21:12:35.968Z,98703.09
2024-02-07T21:15:05.600Z,98699.69
2024-02-07T21:17:35.502Z,98697.81
2024-02-07T21:20:06.831Z,98694.63
2024-02-07T21:22:35.789Z,98687.84
2024-02-07T21:25:05.246Z,98699.31
2024-02-07T21:27:33.854Z,98701.00
2024-02-07T21:30:02.851Z,98687.84
2024-02-07T21:32:31.585Z,98693.84
2024-02-07T21:35:01.495Z,98683.25
2024-02-07T21:37:31.684Z,98690.28
2024-02-07T21:40:01.283Z,98685.97
2024-02-07T21:42:30.088Z,98679.78
2024-02-07T21:44:59.726Z,98682.56
2024-02-07T21:47:29.156Z,98682.56
2024-02-07T21:49:58.355Z,98673.72
2024-02-07T21:52:28.485Z,98664.94
2024-02-07T21:54:58.898Z,98667.56
2024-02-07T21:57:27.585Z,98662.28
2024-02-07T21:59:56.643Z,98657.06
2024-02-07T22:02:25.289Z,98653.56
2024-02-07T22:04:54.302Z,98651.00
2024-02-07T22:07:22.959Z,98663.47
2024-02-07T22:09:52.001Z,98664.22
2024-02-07T22:12:24.881Z,98664.22
2024-02-07T22:14:54.048Z,98657.34
2024-02-07T22:17:24.201Z,98660.00
2024-02-07T22:19:53.515Z,98659.47
2024-02-07T22:22:22.702Z,98659.41
2024-02-07T22:24:52.411Z,98654.31
2024-02-07T22:27:22.448Z,98656.66
2024-02-07T22:29:51.431Z,98659.53
2024-02-07T22:32:20.123Z,98654.25
2024-02-07T22:34:49.159Z,98657.66
2024-02-07T22:37:19.445Z,98658.50
2024-02-07T22:39:49.296Z,98658.44
2024-02-07T22:42:18.080Z,98660.84
2024-02-07T22:44:48.638Z,98655.53
2024-02-07T22:47:17.393Z,98657.34
2024-02-07T22:49:47.722Z,98658.44
2024-02-07T22:52:16.455Z,98652.97
2024-02-07T22:54:45.457Z,98654.13
2024-02-07T22:57:14.936Z,98661.56
2024-02-07T22:59:44.658Z,98662.63
2024-02-07T23:02:15.537Z,98668.06
2024-02-07T23:04:44.801Z,98665.84
2024-02-07T23:07:13.521Z,98658.16
2024-02-07T23:09:42.765Z,98666.38
2024-02-07T23:12:11.498Z,98669.06
2024-02-07T23:14:41.176Z,98661.31
2024-02-07T23:17:09.847Z,98664.47
2024-02-07T23:19:40.557Z,98658.03
2024-02-07T23:22:09.222Z,98665.84
2024-02-07T23:24:38.250Z,98659.25
2024-02-07T23:27:07.121Z,98653.00
2024-02-07T23:29:36.101Z,98662.25
2024-02-07T23:32:05.352Z,98659.56
2024-02-07T23:34:34.650Z,98653.22
2024-02-07T23:37:07.425Z,98659.16
2024-02-07T23:39:37.163Z,98658.28
2024-02-07T23:42:06.491Z,98656.53
2024-02-07T23:44:35.525Z,98658.88
2024-02-07T23:47:04.236Z,98657.31
2024-02-07T23:49:33.245Z,98651.31
2024-02-07T23:52:01.994Z,98657.44
2024-02-07T23:54:32.548Z,98653.28
2024-02-07T23:57:01.610Z,98649.97
2024-02-07T23:59:30.651Z,98656.31
